Time;durP1;ratioP1;P1;durP2;ratioP2;P2;SDS_P1;SDS_P2;PMS_P1;PMS_P2;Temp;Humidity;BMP_temperature;BMP_pressure;BME280_temperature;BME280_humidity;BME280_pressure;Samples;Min_cycle;Max_cycle;Signal;HPM_P1;HPM_P2
2023/04/15 00:01:48;;;;;;;0.20;0.20;;;;;;;16.75;39.67;100999.88;5023221;28;20034;-65
2023/04/15 00:04:13;;;;;;;0.13;0.13;;;;;;;16.75;39.58;100995.28;5040994;28;20139;-67
2023/04/15 00:06:39;;;;;;;0.10;0.10;;;;;;;16.68;39.83;100995.53;5044097;28;20143;-66
2023/04/15 00:09:04;;;;;;;0.20;0.20;;;;;;;16.56;40.04;100992.19;5041217;28;20423;-65
2023/04/15 00:11:30;;;;;;;0.32;0.32;;;;;;;16.49;40.50;100993.47;5043322;28;20064;-67
2023/04/15 00:13:55;;;;;;;0.20;0.20;;;;;;;16.63;39.95;100997.34;5044413;28;20060;-67
2023/04/15 00:16:21;;;;;;;0.20;0.20;;;;;;;16.60;40.21;100989.75;5044631;28;20013;-66
2023/04/15 00:18:46;;;;;;;0.13;0.13;;;;;;;16.55;40.73;100997.84;5043754;28;20037;-66
2023/04/15 00:21:11;;;;;;;0.20;0.20;;;;;;;16.50;41.13;101004.06;5043950;28;20078;-67
2023/04/15 00:23:37;;;;;;;0.17;0.17;;;;;;;16.50;40.04;100998.66;5045880;28;20040;-66
2023/04/15 00:26:02;;;;;;;0.10;0.10;;;;;;;16.52;41.45;100999.19;5016876;28;20053;-66
2023/04/15 00:28:28;;;;;;;0.20;0.20;;;;;;;16.47;41.31;101001.81;5044249;28;20024;-68
2023/04/15 00:30:53;;;;;;;0.20;0.20;;;;;;;16.53;41.60;101000.00;5043526;28;20037;-68
2023/04/15 00:33:19;;;;;;;0.13;0.13;;;;;;;16.53;41.08;100995.41;5026014;28;20123;-67
2023/04/15 00:35:44;;;;;;;0.10;0.10;;;;;;;16.47;41.57;100996.41;5043890;28;20652;-66
2023/04/15 00:38:10;;;;;;;0.15;0.15;;;;;;;16.39;41.13;101002.31;5055152;28;20548;-67
2023/04/15 00:40:36;;;;;;;0.10;0.10;;;;;;;16.38;41.78;101000.69;5046394;28;20029;-66
2023/04/15 00:43:03;;;;;;;0.10;0.10;;;;;;;16.34;42.63;100996.84;5045044;28;20036;-66
2023/04/15 00:45:28;;;;;;;0.10;0.10;;;;;;;16.28;42.39;100991.63;5045411;28;20381;-65
2023/04/15 00:47:54;;;;;;;0.20;0.20;;;;;;;16.02;41.97;101003.34;5045549;28;20032;-67
2023/04/15 00:50:20;;;;;;;0.10;0.10;;;;;;;16.28;42.08;101006.03;5044933;28;20057;-67
2023/04/15 00:52:45;;;;;;;0.20;0.20;;;;;;;16.02;43.29;100996.03;5045544;28;20143;-66
2023/04/15 00:55:11;;;;;;;0.17;0.17;;;;;;;16.24;41.66;100995.94;5046056;28;20127;-66
2023/04/15 00:57:38;;;;;;;0.10;0.10;;;;;;;16.20;42.09;101005.66;5044827;28;20141;-67
2023/04/15 01:00:06;;;;;;;0.32;0.32;;;;;;;15.93;42.60;101010.28;5045165;28;20052;-67
2023/04/15 01:02:33;;;;;;;0.40;0.40;;;;;;;15.78;43.63;101006.34;5045713;28;20770;-67
2023/04/15 01:04:58;;;;;;;0.20;0.20;;;;;;;16.29;42.56;101004.97;5045060;28;20036;-66
2023/04/15 01:07:24;;;;;;;0.13;0.13;;;;;;;16.22;42.83;101007.06;5045671;28;20032;-67
2023/04/15 01:09:49;;;;;;;0.20;0.20;;;;;;;16.09;42.78;101006.66;5045749;28;20036;-68
2023/04/15 01:12:16;;;;;;;0.13;0.13;;;;;;;16.04;43.01;101009.34;5044886;28;20661;-65
2023/04/15 01:14:41;;;;;;;0.10;0.10;;;;;;;16.02;42.95;101011.50;5045713;28;20056;-66
2023/04/15 01:17:07;;;;;;;0.10;0.10;;;;;;;15.99;43.33;101012.81;5049617;28;20029;-68
2023/04/15 01:19:33;;;;;;;0.20;0.20;;;;;;;15.73;44.58;101013.63;5049546;28;20446;-66
2023/04/15 01:21:58;;;;;;;0.10;0.10;;;;;;;16.11;43.12;101008.06;5049759;28;20033;-67
2023/04/15 01:24:26;;;;;;;0.25;0.25;;;;;;;15.34;44.74;101014.75;5031042;28;20040;-66
2023/04/15 01:26:52;;;;;;;0.10;0.10;;;;;;;15.84;43.67;101016.16;5046879;28;20061;-66
2023/04/15 01:29:18;;;;;;;0.17;0.17;;;;;;;15.73;44.52;101008.19;5049261;28;20037;-66
2023/04/15 01:31:52;;;;;;;0.20;0.20;;;;;;;15.46;45.25;101010.06;5049930;28;20036;-66
2023/04/15 01:34:18;;;;;;;0.20;0.20;;;;;;;15.82;43.92;101010.19;5049493;28;20052;-66
2023/04/15 01:36:43;;;;;;;0.17;0.17;;;;;;;15.91;44.01;101013.28;5036209;28;20036;-67
2023/04/15 01:39:09;;;;;;;0.28;0.28;;;;;;;15.97;43.68;101014.13;5054871;28;20370;-67
2023/04/15 01:41:34;;;;;;;0.20;0.20;;;;;;;15.59;44.50;101015.06;5042764;28;20060;-66
2023/04/15 01:44:00;;;;;;;0.13;0.13;;;;;;;15.78;44.42;101019.91;5029831;28;20040;-67
2023/04/15 01:46:25;;;;;;;0.20;0.20;;;;;;;15.61;44.70;101015.66;5029617;28;20029;-66
2023/04/15 01:48:51;;;;;;;0.20;0.20;;;;;;;15.75;44.60;101019.59;5056008;28;20068;-68
2023/04/15 01:51:16;;;;;;;0.20;0.20;;;;;;;15.69;44.50;101013.31;5040449;28;20124;-65
2023/04/15 01:53:42;;;;;;;0.20;0.20;;;;;;;15.80;44.32;101011.53;5028310;28;20037;-67
2023/04/15 01:56:07;;;;;;;0.17;0.17;;;;;;;15.82;44.12;101009.41;5026524;28;20034;-66
2023/04/15 01:58:33;;;;;;;0.20;0.20;;;;;;;15.75;44.58;101017.72;5028976;28;20311;-66
2023/04/15 02:00:58;;;;;;;0.10;0.10;;;;;;;15.69;43.79;101021.44;5028098;28;20076;-66
2023/04/15 02:03:24;;;;;;;0.30;0.30;;;;;;;15.54;45.66;101023.97;5010281;28;20132;-66
2023/04/15 02:05:50;;;;;;;0.20;0.20;;;;;;;15.74;44.73;101023.41;5028589;28;20041;-66
2023/04/15 02:08:16;;;;;;;0.10;0.10;;;;;;;15.82;44.71;101028.38;5029713;28;20041;-67
2023/04/15 02:10:41;;;;;;;0.10;0.10;;;;;;;15.64;44.70;101043.06;5028338;28;20075;-66
2023/04/15 02:13:06;;;;;;;0.20;0.20;;;;;;;15.59;45.61;101032.16;5020119;28;20057;-67
2023/04/15 02:15:32;;;;;;;0.20;0.20;;;;;;;15.37;45.40;101039.44;5006860;28;20048;-65
2023/04/15 02:17:59;;;;;;;0.10;0.10;;;;;;;15.44;45.39;101045.53;5028046;28;20659;-65
2023/04/15 02:20:25;;;;;;;0.10;0.10;;;;;;;15.58;44.99;101043.25;5027746;28;20091;-66
2023/04/15 02:22:51;;;;;;;0.20;0.20;;;;;;;15.39;45.56;101039.19;5009775;28;20049;-66
2023/04/15 02:25:16;;;;;;;0.15;0.15;;;;;;;15.21;45.86;101048.44;5028616;28;20032;-67
2023/04/15 02:27:43;;;;;;;0.10;0.10;;;;;;;15.38;45.54;101049.22;5026157;28;20527;-65
2023/04/15 02:30:09;;;;;;;0.30;0.30;;;;;;;15.35;46.26;101047.00;5027684;28;20127;-65
2023/04/15 02:32:36;;;;;;;0.10;0.10;;;;;;;15.38;45.90;101049.22;5028010;28;20044;-68
2023/04/15 02:35:06;;;;;;;0.30;0.30;;;;;;;15.46;45.88;101053.41;5042542;28;20037;-65
2023/04/15 02:37:35;;;;;;;0.10;0.10;;;;;;;15.46;45.32;101053.41;5041171;28;20021;-66
2023/04/15 02:40:00;;;;;;;0.20;0.20;;;;;;;15.24;46.78;101066.06;5026862;28;20091;-68
2023/04/15 02:42:27;;;;;;;0.10;0.10;;;;;;;15.24;46.47;101060.66;5025868;28;20038;-66
2023/04/15 02:44:53;;;;;;;0.20;0.20;;;;;;;15.27;45.67;101060.16;5026832;28;20041;-68
2023/04/15 02:47:19;;;;;;;0.20;0.20;;;;;;;15.43;45.58;101062.03;5026955;28;20033;-66
2023/04/15 02:49:44;;;;;;;0.20;0.20;;;;;;;15.29;44.88;101066.16;5026829;28;20088;-67
2023/04/15 02:52:10;;;;;;;0.20;0.20;;;;;;;15.37;45.47;101063.81;5026500;28;20143;-65
2023/04/15 02:54:35;;;;;;;0.20;0.20;;;;;;;15.43;45.54;101081.78;5026533;28;20136;-67
2023/04/15 02:57:01;;;;;;;0.20;0.20;;;;;;;15.16;46.15;101082.72;5025968;28;20033;-66
2023/04/15 02:59:26;;;;;;;0.20;0.20;;;;;;;15.24;46.13;101076.88;5026404;28;20048;-66
2023/04/15 03:01:51;;;;;;;0.10;0.10;;;;;;;15.27;45.72;101082.63;5033871;28;20578;-66
2023/04/15 03:04:17;;;;;;;0.20;0.20;;;;;;;15.00;46.80;101084.41;5030680;28;20120;-67
2023/04/15 03:06:42;;;;;;;0.10;0.10;;;;;;;15.15;45.48;101086.53;5029392;28;20049;-65
2023/04/15 03:09:07;;;;;;;0.10;0.10;;;;;;;14.64;47.20;101084.94;5025796;28;20120;-68
2023/04/15 03:11:34;;;;;;;0.10;0.10;;;;;;;15.03;46.86;101083.09;5026595;28;20118;-66
2023/04/15 03:13:59;;;;;;;0.20;0.20;;;;;;;14.68;47.69;101084.16;5027139;28;20029;-66
2023/04/15 03:16:25;;;;;;;0.10;0.10;;;;;;;15.09;47.36;101074.81;5027280;28;20417;-66
2023/04/15 03:18:50;;;;;;;0.20;0.20;;;;;;;14.93;46.65;101078.34;5026984;28;20045;-65
2023/04/15 03:21:16;;;;;;;0.17;0.17;;;;;;;14.93;47.54;101084.59;5026826;28;20069;-67
2023/04/15 03:23:41;;;;;;;0.10;0.10;;;;;;;15.00;46.58;101081.69;5026364;28;20119;-66
2023/04/15 03:26:06;;;;;;;0.20;0.20;;;;;;;14.96;47.30;101089.50;5026666;28;20069;-65
2023/04/15 03:28:32;;;;;;;0.20;0.20;;;;;;;14.62;48.30;101092.47;5026355;28;20112;-66
2023/04/15 03:30:58;;;;;;;0.10;0.10;;;;;;;14.91;47.72;101092.13;5026527;28;20631;-66
2023/04/15 03:33:23;;;;;;;0.25;0.25;;;;;;;14.72;48.04;101101.56;5026732;28;20055;-67
2023/04/15 03:35:50;;;;;;;0.10;0.10;;;;;;;14.80;47.69;101092.22;5026329;28;20047;-66
2023/04/15 03:38:16;;;;;;;0.20;0.20;;;;;;;14.98;47.13;101105.47;5035377;28;20072;-66
2023/04/15 03:40:42;;;;;;;0.10;0.10;;;;;;;14.71;47.97;101097.22;5026893;28;20026;-66
2023/04/15 03:43:07;;;;;;;0.20;0.20;;;;;;;14.75;48.71;101100.25;5025632;28;20115;-66
2023/04/15 03:45:32;;;;;;;0.20;0.20;;;;;;;14.83;48.19;101103.38;5026552;28;20048;-65
2023/04/15 03:47:58;;;;;;;0.10;0.10;;;;;;;14.78;47.75;101110.59;5026013;28;20029;-65
2023/04/15 03:50:23;;;;;;;0.20;0.20;;;;;;;14.89;47.66;101117.78;5025678;28;20037;-66
2023/04/15 03:52:48;;;;;;;0.20;0.20;;;;;;;14.67;48.76;101116.88;5026689;28;20172;-65
2023/04/15 03:55:14;;;;;;;0.15;0.15;;;;;;;14.51;48.33;101115.81;5026456;28;20200;-65
2023/04/15 03:57:40;;;;;;;0.10;0.10;;;;;;;14.90;47.65;101114.84;5025295;28;20069;-65
2023/04/15 04:00:08;;;;;;;0.15;0.15;;;;;;;14.87;47.66;101120.75;5026614;28;20776;-66
2023/04/15 04:02:33;;;;;;;0.20;0.20;;;;;;;14.68;48.21;101119.34;5029716;28;20077;-65
2023/04/15 04:04:59;;;;;;;0.20;0.20;;;;;;;14.40;48.85;101127.53;5025906;28;20064;-65
2023/04/15 04:07:24;;;;;;;0.20;0.20;;;;;;;14.30;49.55;101129.19;5026276;28;20045;-65
2023/04/15 04:09:50;;;;;;;0.30;0.30;;;;;;;14.13;50.44;101137.25;5007561;28;20037;-66
2023/04/15 04:12:15;;;;;;;0.30;0.30;;;;;;;14.41;49.44;101137.25;5025688;28;20037;-66
2023/04/15 04:14:41;;;;;;;0.17;0.17;;;;;;;13.98;50.39;101143.16;5025288;28;20394;-68
2023/04/15 04:17:06;;;;;;;0.20;0.20;;;;;;;14.34;50.05;101142.00;5025501;28;20140;-65
2023/04/15 04:19:32;;;;;;;0.10;0.10;;;;;;;14.42;49.22;101141.63;5026427;28;20040;-67
2023/04/15 04:21:57;;;;;;;0.20;0.20;;;;;;;14.13;50.30;101135.34;5025898;28;20154;-66
2023/04/15 04:24:22;;;;;;;0.20;0.20;;;;;;;14.38;49.15;101143.16;5025729;28;20706;-65
2023/04/15 04:26:48;;;;;;;0.20;0.20;;;;;;;14.54;48.65;101141.56;5028450;28;20095;-66
2023/04/15 04:29:13;;;;;;;0.40;0.32;;;;;;;14.31;49.94;101138.97;5028246;28;20083;-66
2023/04/15 04:31:39;;;;;;;0.20;0.20;;;;;;;14.44;49.57;101144.91;5029290;28;20048;-66
2023/04/15 04:34:04;;;;;;;0.10;0.10;;;;;;;13.74;52.15;101146.16;5028077;28;20037;-66
2023/04/15 04:36:29;;;;;;;0.20;0.20;;;;;;;14.07;51.47;101151.72;5029809;28;20040;-67
2023/04/15 04:38:55;;;;;;;0.20;0.20;;;;;;;14.27;50.25;101152.09;5033904;28;20543;-67
2023/04/15 04:41:20;;;;;;;0.20;0.20;;;;;;;14.48;49.09;101159.56;5008243;28;20056;-66
2023/04/15 04:43:46;;;;;;;0.22;0.22;;;;;;;14.61;49.15;101161.97;5027056;28;20110;-66
2023/04/15 04:46:11;;;;;;;0.30;0.30;;;;;;;14.25;50.22;101169.63;5008080;28;20519;-66
2023/04/15 04:48:37;;;;;;;0.20;0.20;;;;;;;14.52;49.12;101160.72;5024218;28;20123;-66
2023/04/15 04:51:02;;;;;;;0.20;0.20;;;;;;;14.19;51.04;101170.59;5046792;28;20048;-65
2023/04/15 04:53:28;;;;;;;0.20;0.20;;;;;;;13.91;51.66;101179.50;5045400;28;20033;-66
2023/04/15 04:55:53;;;;;;;0.32;0.32;;;;;;;14.26;50.04;101182.09;5026639;28;20036;-65
2023/04/15 04:58:18;;;;;;;0.10;0.10;;;;;;;14.38;50.14;101172.06;5025718;28;20041;-65
2023/04/15 05:00:44;;;;;;;0.20;0.20;;;;;;;14.25;50.13;101186.66;5036444;28;20449;-65
2023/04/15 05:03:09;;;;;;;0.20;0.20;;;;;;;14.26;50.16;101193.72;5044965;28;20525;-66
2023/04/15 05:05:35;;;;;;;0.20;0.20;;;;;;;14.38;50.05;101189.13;5029083;28;20041;-66
2023/04/15 05:08:01;;;;;;;0.20;0.20;;;;;;;14.44;49.63;101187.34;5039246;28;20498;-64
2023/04/15 05:10:26;;;;;;;0.20;0.20;;;;;;;14.19;50.26;101189.53;5034371;28;20089;-65
2023/04/15 05:12:52;;;;;;;0.10;0.10;;;;;;;14.57;50.03;101190.56;5026825;28;20068;-65
2023/04/15 05:15:17;;;;;;;0.28;0.28;;;;;;;14.72;48.70;101198.94;5024724;28;20076;-66
2023/04/15 05:17:43;;;;;;;0.20;0.20;;;;;;;14.48;50.26;101197.44;5027731;28;20033;-65
2023/04/15 05:20:09;;;;;;;0.20;0.20;;;;;;;14.38;50.14;101205.34;5038240;28;20712;-65
2023/04/15 05:22:35;;;;;;;0.20;0.20;;;;;;;14.40;50.55;101205.94;5035205;28;20120;-66
2023/04/15 05:25:00;;;;;;;0.20;0.20;;;;;;;14.68;49.42;101213.22;5031481;28;20577;-66
2023/04/15 05:27:25;;;;;;;0.10;0.10;;;;;;;14.32;50.87;101205.47;5044236;28;20124;-66
2023/04/15 05:29:51;;;;;;;0.10;0.10;;;;;;;14.55;49.82;101203.50;5045319;28;20036;-66
2023/04/15 05:32:16;;;;;;;0.10;0.10;;;;;;;13.99;52.02;101209.66;5057332;28;20124;-66
2023/04/15 05:34:42;;;;;;;0.20;0.20;;;;;;;14.18;51.92;101213.03;5044563;28;20547;-65
2023/04/15 05:37:07;;;;;;;0.20;0.20;;;;;;;14.52;50.63;101206.72;5052780;28;20051;-65
2023/04/15 05:39:32;;;;;;;0.20;0.20;;;;;;;14.84;49.66;101213.22;5047056;28;20094;-67
2023/04/15 05:41:59;;;;;;;0.30;0.30;;;;;;;14.92;49.62;101212.81;5046034;28;20508;-65
2023/04/15 05:44:24;;;;;;;0.10;0.10;;;;;;;14.63;50.64;101215.81;5056343;28;20366;-65
2023/04/15 05:46:50;;;;;;;0.20;0.20;;;;;;;14.80;50.58;101214.78;5054050;28;20029;-65
2023/04/15 05:49:15;;;;;;;0.10;0.10;;;;;;;15.28;49.35;101208.00;5048867;28;20029;-65
2023/04/15 05:51:41;;;;;;;0.15;0.15;;;;;;;15.52;47.55;101218.44;5058550;28;20135;-67
2023/04/15 05:54:06;;;;;;;0.20;0.20;;;;;;;15.43;48.66;101219.13;5044091;28;20041;-64
2023/04/15 05:56:31;;;;;;;0.10;0.10;;;;;;;15.45;48.90;101222.41;5044440;28;20045;-65
2023/04/15 05:58:57;;;;;;;0.20;0.20;;;;;;;15.21;49.39;101223.59;5044592;28;20037;-65
2023/04/15 06:01:22;;;;;;;0.20;0.20;;;;;;;15.71;48.69;101232.53;5059207;28;20111;-65
2023/04/15 06:03:48;;;;;;;0.20;0.20;;;;;;;15.37;48.62;101230.91;5048494;28;20041;-66
2023/04/15 06:06:14;;;;;;;0.30;0.30;;;;;;;15.60;48.25;101241.56;5060650;28;20056;-65
2023/04/15 06:08:40;;;;;;;0.20;0.20;;;;;;;15.50;48.33;101246.84;5055148;28;20059;-65
2023/04/15 06:11:06;;;;;;;0.30;0.30;;;;;;;15.70;48.10;101241.72;5053370;28;20044;-66
2023/04/15 06:13:31;;;;;;;0.20;0.20;;;;;;;15.83;47.50;101249.50;5062942;28;20058;-66
2023/04/15 06:15:57;;;;;;;0.10;0.10;;;;;;;15.59;48.01;101262.44;5062522;28;20039;-66
2023/04/15 06:18:22;;;;;;;0.20;0.20;;;;;;;15.91;47.43;101265.34;5053618;28;20044;-67
2023/04/15 06:20:48;;;;;;;0.20;0.20;;;;;;;15.71;47.98;101271.28;5055432;28;20576;-68
2023/04/15 06:23:13;;;;;;;0.20;0.20;;;;;;;15.88;47.30;101284.00;5060390;28;20059;-65
2023/04/15 06:25:38;;;;;;;0.20;0.20;;;;;;;14.95;49.66;101280.00;5045574;28;20140;-67
2023/04/15 06:28:04;;;;;;;0.20;0.20;;;;;;;15.37;48.49;101294.00;5041610;28;20051;-66
2023/04/15 06:30:29;;;;;;;0.20;0.20;;;;;;;15.77;47.84;101294.69;5036917;28;20053;-65
2023/04/15 06:32:55;;;;;;;0.10;0.10;;;;;;;15.35;49.30;101298.03;5034954;28;20555;-67
2023/04/15 06:35:20;;;;;;;0.10;0.10;;;;;;;15.60;48.16;101301.19;5028602;28;20045;-65
2023/04/15 06:37:46;;;;;;;0.20;0.20;;;;;;;15.90;47.92;101304.34;5040869;28;20037;-66
2023/04/15 06:40:12;;;;;;;0.20;0.20;;;;;;;15.51;48.76;101313.47;5028104;28;20148;-66
2023/04/15 06:42:37;;;;;;;0.20;0.20;;;;;;;14.69;51.22;101317.63;5027037;28;20089;-66
2023/04/15 06:45:03;;;;;;;0.13;0.13;;;;;;;15.50;49.33;101320.81;5027494;28;20501;-67
2023/04/15 06:47:28;;;;;;;0.10;0.10;;;;;;;15.33;50.10;101319.13;5043540;28;20455;-67
2023/04/15 06:49:53;;;;;;;0.30;0.30;;;;;;;15.10;50.93;101320.06;5027252;28;20531;-67
2023/04/15 06:52:19;;;;;;;0.25;0.25;;;;;;;15.25;50.02;101327.63;5035271;28;20029;-66
2023/04/15 06:54:44;;;;;;;0.20;0.20;;;;;;;14.98;50.84;101327.41;5035875;28;20048;-65
2023/04/15 06:57:10;;;;;;;0.20;0.20;;;;;;;15.64;49.46;101332.13;5042311;28;20032;-66
2023/04/15 06:59:35;;;;;;;0.20;0.20;;;;;;;15.69;49.27;101333.03;5030030;28;20083;-67
2023/04/15 07:02:00;;;;;;;0.10;0.10;;;;;;;15.84;48.88;101333.25;5026128;28;20029;-66
2023/04/15 07:04:26;;;;;;;0.20;0.20;;;;;;;15.01;50.82;101335.06;5027492;28;20034;-67
2023/04/15 07:06:54;;;;;;;0.20;0.20;;;;;;;15.61;49.97;101336.16;5026718;28;20065;-66
2023/04/15 07:09:20;;;;;;;0.10;0.10;;;;;;;14.93;51.62;101341.69;5026040;28;20041;-66
2023/04/15 07:11:45;;;;;;;0.20;0.20;;;;;;;15.14;51.29;101345.56;5026724;28;20563;-66
2023/04/15 07:14:10;;;;;;;0.30;0.30;;;;;;;16.19;48.64;101346.53;5015760;28;20045;-66
2023/04/15 07:16:36;;;;;;;0.20;0.20;;;;;;;15.77;49.62;101351.59;5020469;28;20031;-66
2023/04/15 07:19:01;;;;;;;0.20;0.20;;;;;;;16.54;47.63;101346.22;5019970;28;20134;-66
2023/04/15 07:21:26;;;;;;;0.20;0.20;;;;;;;15.86;49.00;101356.59;5024897;28;20037;-66
2023/04/15 07:23:52;;;;;;;0.10;0.10;;;;;;;16.19;49.04;101351.13;5026265;28;20095;-66
2023/04/15 07:26:17;;;;;;;0.20;0.20;;;;;;;15.72;50.51;101351.50;5020614;28;20074;-65
2023/04/15 07:28:43;;;;;;;0.20;0.20;;;;;;;16.36;48.53;101363.59;5019246;28;20037;-67
2023/04/15 07:31:08;;;;;;;0.30;0.30;;;;;;;15.68;50.61;101363.09;5018068;28;20053;-66
2023/04/15 07:33:33;;;;;;;0.30;0.30;;;;;;;16.42;48.33;101367.19;5021957;28;20510;-66
2023/04/15 07:35:59;;;;;;;0.10;0.10;;;;;;;16.16;48.55;101374.13;5029437;28;20041;-66
2023/04/15 07:38:25;;;;;;;0.10;0.10;;;;;;;16.14;49.78;101370.03;5041565;28;20180;-65
2023/04/15 07:40:50;;;;;;;0.30;0.30;;;;;;;16.18;49.89;101363.88;5018320;28;20041;-65
2023/04/15 07:43:16;;;;;;;0.13;0.13;;;;;;;14.62;54.69;101371.88;5015114;28;20034;-66
2023/04/15 07:45:41;;;;;;;0.20;0.20;;;;;;;15.88;51.78;101371.53;5010050;28;20049;-66
2023/04/15 07:48:07;;;;;;;0.10;0.10;;;;;;;16.01;50.82;101378.50;5028537;28;20044;-66
2023/04/15 07:50:32;;;;;;;0.30;0.30;;;;;;;15.78;51.04;101376.81;5026603;28;20037;-65
2023/04/15 07:52:57;;;;;;;0.20;0.20;;;;;;;16.92;49.09;101372.47;5026288;28;20052;-67
2023/04/15 07:55:23;;;;;;;0.20;0.20;;;;;;;16.86;48.51;101384.34;5026120;28;20521;-66
2023/04/15 07:57:49;;;;;;;0.20;0.20;;;;;;;17.58;47.26;101382.97;5025653;28;20151;-66
2023/04/15 08:00:15;;;;;;;0.10;0.10;;;;;;;17.42;48.67;101389.28;5018272;28;20115;-66
2023/04/15 08:02:42;;;;;;;0.20;0.20;;;;;;;17.76;46.60;101379.88;5018631;28;20052;-64
2023/04/15 08:05:08;;;;;;;0.20;0.20;;;;;;;17.76;46.75;101379.88;5025659;28;20087;-66
2023/04/15 08:07:33;;;;;;;0.20;0.20;;;;;;;17.84;47.08;101393.00;5026317;28;20026;-65
2023/04/15 08:09:59;;;;;;;0.20;0.20;;;;;;;16.40;50.08;101391.03;5023281;28;20045;-66
2023/04/15 08:12:24;;;;;;;0.20;0.20;;;;;;;16.41;51.35;101393.47;5028882;28;20104;-67
2023/04/15 08:14:51;;;;;;;0.10;0.10;;;;;;;17.32;48.76;101394.63;5025844;28;20443;-66
2023/04/15 08:17:16;;;;;;;0.30;0.30;;;;;;;16.95;49.33;101390.94;5018281;28;20568;-66
2023/04/15 08:19:41;;;;;;;0.10;0.10;;;;;;;16.54;50.76;101404.03;5025904;28;20095;-67
2023/04/15 08:22:07;;;;;;;0.20;0.20;;;;;;;16.63;51.00;101401.69;5018216;28;20029;-66
2023/04/15 08:24:33;;;;;;;0.20;0.20;;;;;;;17.01;49.72;101400.81;5020449;28;20025;-67
2023/04/15 08:26:58;;;;;;;0.20;0.20;;;;;;;16.91;50.19;101411.53;5031204;28;20136;-66
2023/04/15 08:29:24;;;;;;;0.20;0.20;;;;;;;17.09;49.29;101414.75;5045757;28;20037;-67
2023/04/15 08:31:50;;;;;;;0.30;0.30;;;;;;;16.92;50.46;101413.19;5048028;28;20035;-65
2023/04/15 08:34:15;;;;;;;0.20;0.20;;;;;;;16.87;49.23;101403.09;5048426;28;20051;-67
2023/04/15 08:36:41;;;;;;;0.30;0.30;;;;;;;16.73;49.21;101409.97;5048958;28;20032;-65
2023/04/15 08:39:07;;;;;;;0.20;0.20;;;;;;;17.25;48.00;101410.31;5042507;28;20041;-65
2023/04/15 08:41:46;;;;;;;0.20;0.20;;;;;;;18.00;47.29;101407.53;5044404;28;20033;-66
2023/04/15 08:44:13;;;;;;;0.20;0.20;;;;;;;18.56;45.04;101408.72;5038518;28;20412;-67
2023/04/15 08:46:41;;;;;;;0.20;0.20;;;;;;;18.34;45.97;101414.28;5045961;28;20028;-66
2023/04/15 08:49:09;;;;;;;0.20;0.20;;;;;;;18.92;44.90;101413.28;5048288;28;20099;-66
2023/04/15 08:51:35;;;;;;;0.10;0.10;;;;;;;16.19;51.32;101416.22;5047061;28;20116;-66
2023/04/15 08:54:02;;;;;;;0.17;0.17;;;;;;;17.36;49.21;101425.63;5046216;28;20049;-67
2023/04/15 08:56:31;;;;;;;0.10;0.10;;;;;;;17.69;47.66;101422.75;5041402;28;20590;-66
2023/04/15 08:58:58;;;;;;;0.20;0.20;;;;;;;17.48;48.92;101420.88;5045512;28;20028;-67
2023/04/15 09:01:23;;;;;;;0.17;0.17;;;;;;;18.05;47.09;101419.25;5047709;28;20025;-65
2023/04/15 09:03:53;;;;;;;0.20;0.20;;;;;;;16.80;49.63;101426.91;5043429;28;20044;-65
2023/04/15 09:06:19;;;;;;;0.20;0.20;;;;;;;17.64;48.05;101432.75;5042447;28;20043;-65
2023/04/15 09:08:45;;;;;;;0.10;0.10;;;;;;;16.92;48.22;101434.91;5044584;28;20037;-67
2023/04/15 09:11:11;;;;;;;0.10;0.10;;;;;;;15.27;53.80;101437.31;5047227;28;20753;-66
2023/04/15 09:13:37;;;;;;;0.20;0.20;;;;;;;16.99;49.35;101436.34;5045021;28;20094;-65
2023/04/15 09:16:04;;;;;;;0.20;0.20;;;;;;;16.35;50.32;101446.00;5047582;28;20033;-67
2023/04/15 09:18:31;;;;;;;0.10;0.10;;;;;;;17.34;48.23;101453.06;5043106;28;20063;-66
2023/04/15 09:21:11;;;;;;;0.10;0.10;;;;;;;17.76;47.36;101447.00;5041678;28;20040;-67
2023/04/15 09:23:38;;;;;;;0.20;0.20;;;;;;;17.93;46.07;101448.53;5044790;28;20037;-66
2023/04/15 09:26:05;;;;;;;0.20;0.20;;;;;;;18.47;44.67;101451.16;5044277;28;20127;-68
2023/04/15 09:28:30;;;;;;;0.10;0.10;;;;;;;18.82;43.71;101448.63;5033902;28;20045;-65
2023/04/15 09:31:00;;;;;;;0.20;0.20;;;;;;;18.89;43.55;101455.47;5032281;28;20052;-67
2023/04/15 09:33:27;;;;;;;0.10;0.10;;;;;;;18.37;44.63;101460.03;5036037;28;20060;-66
2023/04/15 09:36:01;;;;;;;0.10;0.10;;;;;;;18.79;43.19;101460.06;5038568;28;20099;-66
2023/04/15 09:38:26;;;;;;;0.10;0.10;;;;;;;18.79;43.70;101465.50;5047952;28;20040;-66
2023/04/15 09:40:52;;;;;;;0.20;0.20;;;;;;;18.71;42.80;101460.56;5046048;28;20397;-65
2023/04/15 09:43:17;;;;;;;0.20;0.20;;;;;;;19.14;42.57;101471.13;5042834;28;20036;-66
2023/04/15 09:45:48;;;;;;;0.20;0.20;;;;;;;19.02;41.74;101471.34;5043014;28;20038;-64
2023/04/15 09:48:21;;;;;;;0.10;0.10;;;;;;;18.65;43.37;101470.59;5034583;28;20173;-66
2023/04/15 09:50:48;;;;;;;0.10;0.10;;;;;;;18.15;43.55;101481.91;5035442;28;20041;-66
2023/04/15 09:53:20;;;;;;;0.20;0.20;;;;;;;17.66;45.36;101490.41;5036415;28;20098;-66
2023/04/15 09:55:56;;;;;;;0.10;0.10;;;;;;;18.33;43.88;101483.41;5047942;28;20029;-66
2023/04/15 09:58:25;;;;;;;0.10;0.10;;;;;;;17.53;45.45;101487.00;5042535;28;20067;-65
2023/04/15 10:00:52;;;;;;;0.25;0.25;;;;;;;18.70;42.70;101489.69;5044848;28;20682;-64
2023/04/15 10:03:20;;;;;;;0.10;0.10;;;;;;;18.60;42.74;101491.50;5036425;28;20088;-63
2023/04/15 10:05:48;;;;;;;0.10;0.10;;;;;;;18.91;42.26;101479.72;5035718;28;20074;-65
2023/04/15 10:08:16;;;;;;;0.10;0.10;;;;;;;18.59;42.48;101493.44;5032249;28;20529;-63
2023/04/15 10:10:41;;;;;;;0.15;0.15;;;;;;;17.79;44.95;101503.59;5035424;28;20123;-65
2023/04/15 10:13:08;;;;;;;0.20;0.20;;;;;;;18.62;43.09;101500.25;5034603;28;20025;-64
2023/04/15 10:15:36;;;;;;;0.20;0.20;;;;;;;17.99;44.45;101514.66;5035640;28;20488;-64
2023/04/15 10:18:03;;;;;;;0.20;0.20;;;;;;;17.59;45.67;101506.94;5032964;28;20045;-64
2023/04/15 10:20:29;;;;;;;0.20;0.20;;;;;;;18.76;43.05;101510.41;5036506;28;20041;-64
2023/04/15 10:22:55;;;;;;;0.13;0.13;;;;;;;17.70;45.59;101511.38;5024697;28;20107;-62
2023/04/15 10:25:22;;;;;;;0.20;0.20;;;;;;;17.88;44.99;101515.66;5035924;28;20025;-62
2023/04/15 10:27:50;;;;;;;0.17;0.17;;;;;;;18.71;43.03;101517.75;5031501;28;20114;-63
2023/04/15 10:30:17;;;;;;;0.10;0.10;;;;;;;19.35;42.21;101508.31;5032495;28;20037;-62
2023/04/15 10:32:43;;;;;;;0.20;0.20;;;;;;;18.80;43.63;101516.16;5034862;28;20174;-62
2023/04/15 10:35:10;;;;;;;0.10;0.10;;;;;;;19.64;42.17;101514.94;5038780;28;20451;-63
2023/04/15 10:37:37;;;;;;;0.13;0.13;;;;;;;18.26;44.76;101520.88;5039777;28;20025;-62
2023/04/15 10:40:26;;;;;;;0.20;0.20;;;;;;;18.68;44.29;101516.34;5035725;28;20539;-62
2023/04/15 10:42:52;;;;;;;0.20;0.20;;;;;;;18.76;43.81;101528.66;5036993;28;20041;-63
2023/04/15 10:45:18;;;;;;;0.10;0.10;;;;;;;19.62;42.03;101513.56;5035453;28;20037;-63
2023/04/15 10:47:44;;;;;;;0.30;0.30;;;;;;;19.68;40.37;101510.59;5035819;28;20041;-62
2023/04/15 10:50:09;;;;;;;0.10;0.10;;;;;;;19.54;41.92;101525.81;5033266;28;20832;-63
2023/04/15 10:52:40;;;;;;;0.20;0.20;;;;;;;18.55;43.36;101544.03;5036018;28;20096;-64
2023/04/15 10:55:16;;;;;;;0.10;0.10;;;;;;;19.36;41.55;101525.47;5033684;28;20052;-63
2023/04/15 10:57:44;;;;;;;0.20;0.20;;;;;;;18.61;42.86;101534.84;5029435;28;20151;-62
2023/04/15 11:00:16;;;;;;;0.20;0.20;;;;;;;19.39;42.15;101516.75;5035674;28;20034;-64
2023/04/15 11:02:53;;;;;;;0.10;0.10;;;;;;;19.82;40.60;101538.97;5033659;28;20059;-64
2023/04/15 11:05:20;;;;;;;0.10;0.10;;;;;;;18.64;42.08;101534.28;5034918;28;20080;-63
2023/04/15 11:07:45;;;;;;;0.10;0.10;;;;;;;19.01;41.15;101536.97;5033202;28;20025;-64
2023/04/15 11:10:16;;;;;;;0.25;0.25;;;;;;;18.40;42.83;101532.97;5034194;28;20148;-63
2023/04/15 11:12:42;;;;;;;0.20;0.20;;;;;;;19.17;41.63;101542.25;5034525;28;20032;-64
2023/04/15 11:15:29;;;;;;;0.20;0.20;;;;;;;19.43;41.30;101539.66;5033137;28;20111;-64
2023/04/15 11:17:56;;;;;;;0.10;0.10;;;;;;;19.44;40.68;101528.50;5035490;28;20057;-62
2023/04/15 11:20:22;;;;;;;0.10;0.10;;;;;;;19.09;41.39;101536.47;5033626;28;20064;-63